sensor_id;sensor_type;location;lat;lon;timestamp;pressure;altitude;pressure_sealevel;temperature;humidity
11268;BME280;49397;47.474;9.416;2023-07-31T00:01:15;95685.91;;;17.98;62.25
11268;BME280;49397;47.474;9.416;2023-07-31T00:03:41;95681.63;;;17.97;62.23
11268;BME280;49397;47.474;9.416;2023-07-31T00:06:06;95678.22;;;18.01;62.48
11268;BME280;49397;47.474;9.416;2023-07-31T00:08:31;95673.97;;;18.00;61.74
11268;BME280;49397;47.474;9.416;2023-07-31T00:10:57;95669.66;;;17.98;61.52
11268;BME280;49397;47.474;9.416;2023-07-31T00:13:22;95665.84;;;18.00;62.06
11268;BME280;49397;47.474;9.416;2023-07-31T00:15:48;95667.75;;;17.99;62.48
11268;BME280;49397;47.474;9.416;2023-07-31T00:18:13;95668.78;;;17.94;62.18
11268;BME280;49397;47.474;9.416;2023-07-31T00:20:39;95663.38;;;17.94;62.49
11268;BME280;49397;47.474;9.416;2023-07-31T00:23:04;95666.88;;;17.95;63.20
11268;BME280;49397;47.474;9.416;2023-07-31T00:25:30;95663.38;;;17.94;62.38
11268;BME280;49397;47.474;9.416;2023-07-31T00:27:55;95665.47;;;18.01;63.08
11268;BME280;49397;47.474;9.416;2023-07-31T00:30:20;95668.28;;;18.05;63.19
11268;BME280;49397;47.474;9.416;2023-07-31T00:32:47;95674.13;;;18.07;62.96
11268;BME280;49397;47.474;9.416;2023-07-31T00:35:13;95672.91;;;18.04;62.14
11268;BME280;49397;47.474;9.416;2023-07-31T00:37:38;95664.69;;;18.01;62.38
11268;BME280;49397;47.474;9.416;2023-07-31T00:40:04;95651.88;;;17.97;62.23
11268;BME280;49397;47.474;9.416;2023-07-31T00:42:29;95658.75;;;17.95;62.18
11268;BME280;49397;47.474;9.416;2023-07-31T00:44:55;95652.56;;;17.94;63.20
11268;BME280;49397;47.474;9.416;2023-07-31T00:47:20;95657.53;;;17.92;63.50
11268;BME280;49397;47.474;9.416;2023-07-31T00:49:46;95651.34;;;17.92;62.46
11268;BME280;49397;47.474;9.416;2023-07-31T00:52:12;95656.66;;;17.88;63.32
11268;BME280;49397;47.474;9.416;2023-07-31T00:54:37;95656.13;;;17.83;63.24
11268;BME280;49397;47.474;9.416;2023-07-31T00:57:03;95657.84;;;17.75;63.77
11268;BME280;49397;47.474;9.416;2023-07-31T00:59:28;95664.94;;;17.80;63.44
11268;BME280;49397;47.474;9.416;2023-07-31T01:01:54;95667.53;;;17.76;64.37
11268;BME280;49397;47.474;9.416;2023-07-31T01:04:20;95661.25;;;17.72;64.86
11268;BME280;49397;47.474;9.416;2023-07-31T01:07:04;95660.81;;;17.70;64.75
11268;BME280;49397;47.474;9.416;2023-07-31T01:09:42;95664.84;;;17.76;64.65
11268;BME280;49397;47.474;9.416;2023-07-31T01:12:09;95662.94;;;17.77;65.09
11268;BME280;49397;47.474;9.416;2023-07-31T01:14:38;95656.72;;;17.76;64.05
11268;BME280;49397;47.474;9.416;2023-07-31T01:17:03;95648.00;;;17.67;64.30
11268;BME280;49397;47.474;9.416;2023-07-31T01:19:29;95645.53;;;17.62;65.50
11268;BME280;49397;47.474;9.416;2023-07-31T01:24:48;95634.75;;;17.50;64.80
11268;BME280;49397;47.474;9.416;2023-07-31T01:27:25;95628.47;;;17.46;64.34
11268;BME280;49397;47.474;9.416;2023-07-31T01:30:00;95634.22;;;17.44;64.87
11268;BME280;49397;47.474;9.416;2023-07-31T01:32:29;95633.00;;;17.42;65.16
11268;BME280;49397;47.474;9.416;2023-07-31T01:34:56;95632.53;;;17.40;65.72
11268;BME280;49397;47.474;9.416;2023-07-31T01:37:28;95618.41;;;17.31;65.56
11268;BME280;49397;47.474;9.416;2023-07-31T01:39:53;95629.22;;;17.31;65.44
11268;BME280;49397;47.474;9.416;2023-07-31T01:42:19;95629.22;;;17.31;66.22
11268;BME280;49397;47.474;9.416;2023-07-31T01:44:44;95626.50;;;17.31;66.39
11268;BME280;49397;47.474;9.416;2023-07-31T01:47:09;95626.06;;;17.29;66.47
11268;BME280;49397;47.474;9.416;2023-07-31T01:49:35;95629.50;;;17.14;68.25
11268;BME280;49397;47.474;9.416;2023-07-31T01:52:00;95621.91;;;16.91;69.08
11268;BME280;49397;47.474;9.416;2023-07-31T01:54:25;95619.25;;;16.79;71.12
11268;BME280;49397;47.474;9.416;2023-07-31T01:56:51;95623.19;;;16.70;71.04
11268;BME280;49397;47.474;9.416;2023-07-31T01:59:16;95624.00;;;16.58;71.15
11268;BME280;49397;47.474;9.416;2023-07-31T02:01:41;95617.69;;;16.54;70.40
11268;BME280;49397;47.474;9.416;2023-07-31T02:04:07;95619.28;;;16.55;70.75
11268;BME280;49397;47.474;9.416;2023-07-31T02:06:32;95613.97;;;16.47;70.69
11268;BME280;49397;47.474;9.416;2023-07-31T02:08:58;95615.22;;;16.37;71.63
11268;BME280;49397;47.474;9.416;2023-07-31T02:11:23;95613.09;;;16.42;71.59
11268;BME280;49397;47.474;9.416;2023-07-31T02:13:48;95602.53;;;16.37;70.56
11268;BME280;49397;47.474;9.416;2023-07-31T02:16:14;95598.59;;;16.35;69.00
11268;BME280;49397;47.474;9.416;2023-07-31T02:18:39;95593.53;;;16.21;69.50
11268;BME280;49397;47.474;9.416;2023-07-31T02:21:04;95592.09;;;16.12;70.76
11268;BME280;49397;47.474;9.416;2023-07-31T02:23:30;95592.09;;;16.12;70.62
11268;BME280;49397;47.474;9.416;2023-07-31T02:25:55;95580.84;;;16.22;68.23
11268;BME280;49397;47.474;9.416;2023-07-31T02:28:20;95583.09;;;16.32;67.92
11268;BME280;49397;47.474;9.416;2023-07-31T02:30:46;95575.56;;;16.37;67.19
11268;BME280;49397;47.474;9.416;2023-07-31T02:33:11;95580.63;;;16.39;69.02
11268;BME280;49397;47.474;9.416;2023-07-31T02:35:36;95578.72;;;16.39;69.94
11268;BME280;49397;47.474;9.416;2023-07-31T02:38:02;95576.59;;;16.33;70.40
11268;BME280;49397;47.474;9.416;2023-07-31T02:40:28;95576.00;;;16.27;70.47
11268;BME280;49397;47.474;9.416;2023-07-31T02:42:53;95585.81;;;16.20;70.52
11268;BME280;49397;47.474;9.416;2023-07-31T02:45:18;95575.03;;;16.08;71.61
11268;BME280;49397;47.474;9.416;2023-07-31T02:47:44;95577.25;;;16.06;70.88
11268;BME280;49397;47.474;9.416;2023-07-31T02:50:09;95577.50;;;16.01;70.96
11268;BME280;49397;47.474;9.416;2023-07-31T02:52:35;95584.44;;;15.89;72.34
11268;BME280;49397;47.474;9.416;2023-07-31T02:55:00;95576.03;;;15.79;71.93
11268;BME280;49397;47.474;9.416;2023-07-31T02:57:25;95580.75;;;15.82;70.61
11268;BME280;49397;47.474;9.416;2023-07-31T02:59:51;95577.03;;;15.74;70.69
11268;BME280;49397;47.474;9.416;2023-07-31T03:02:16;95585.75;;;15.59;72.12
11268;BME280;49397;47.474;9.416;2023-07-31T03:04:41;95578.53;;;15.51;72.69
11268;BME280;49397;47.474;9.416;2023-07-31T03:07:07;95582.53;;;15.45;72.78
11268;BME280;49397;47.474;9.416;2023-07-31T03:09:32;95580.19;;;15.44;72.29
11268;BME280;49397;47.474;9.416;2023-07-31T03:11:57;95579.22;;;15.48;70.91
11268;BME280;49397;47.474;9.416;2023-07-31T03:14:23;95579.53;;;15.47;72.31
11268;BME280;49397;47.474;9.416;2023-07-31T03:16:48;95588.16;;;15.40;72.70
11268;BME280;49397;47.474;9.416;2023-07-31T03:19:14;95588.34;;;15.35;72.47
11268;BME280;49397;47.474;9.416;2023-07-31T03:21:39;95591.00;;;15.23;74.20
11268;BME280;49397;47.474;9.416;2023-07-31T03:24:05;95584.75;;;14.98;74.89
11268;BME280;49397;47.474;9.416;2023-07-31T03:26:33;95588.63;;;14.89;75.99
11268;BME280;49397;47.474;9.416;2023-07-31T03:28:58;95588.91;;;14.75;77.01
11268;BME280;49397;47.474;9.416;2023-07-31T03:31:24;95589.50;;;14.60;77.34
11268;BME280;49397;47.474;9.416;2023-07-31T03:33:49;95592.38;;;14.55;78.26
11268;BME280;49397;47.474;9.416;2023-07-31T03:36:14;95586.66;;;14.56;77.62
11268;BME280;49397;47.474;9.416;2023-07-31T03:38:40;95579.31;;;14.65;78.23
11268;BME280;49397;47.474;9.416;2023-07-31T03:41:05;95583.91;;;14.65;77.35
11268;BME280;49397;47.474;9.416;2023-07-31T03:43:32;95596.84;;;14.71;77.48
11268;BME280;49397;47.474;9.416;2023-07-31T03:46:02;95588.03;;;14.62;78.54
11268;BME280;49397;47.474;9.416;2023-07-31T03:48:28;95586.81;;;14.60;78.35
11268;BME280;49397;47.474;9.416;2023-07-31T03:50:54;95587.25;;;14.62;77.44
11268;BME280;49397;47.474;9.416;2023-07-31T03:53:19;95587.13;;;14.58;77.90
11268;BME280;49397;47.474;9.416;2023-07-31T03:55:45;95594.94;;;14.72;77.26
11268;BME280;49397;47.474;9.416;2023-07-31T03:58:10;95591.59;;;14.75;76.99
11268;BME280;49397;47.474;9.416;2023-07-31T04:00:36;95593.81;;;14.73;78.65
11268;BME280;49397;47.474;9.416;2023-07-31T04:03:01;95597.69;;;14.63;78.71
11268;BME280;49397;47.474;9.416;2023-07-31T04:05:27;95594.41;;;14.58;78.45
11268;BME280;49397;47.474;9.416;2023-07-31T04:07:52;95586.22;;;14.54;77.97
11268;BME280;49397;47.474;9.416;2023-07-31T04:10:18;95589.03;;;14.58;77.60
11268;BME280;49397;47.474;9.416;2023-07-31T04:12:43;95592.25;;;14.51;77.67
11268;BME280;49397;47.474;9.416;2023-07-31T04:15:09;95590.47;;;14.55;77.34
11268;BME280;49397;47.474;9.416;2023-07-31T04:17:34;95599.19;;;14.52;77.75
11268;BME280;49397;47.474;9.416;2023-07-31T04:19:59;95599.19;;;14.52;77.56
11268;BME280;49397;47.474;9.416;2023-07-31T04:22:25;95598.88;;;14.54;77.46
11268;BME280;49397;47.474;9.416;2023-07-31T04:24:50;95609.50;;;14.50;78.31
11268;BME280;49397;47.474;9.416;2023-07-31T04:27:16;95604.91;;;14.51;78.19
11268;BME280;49397;47.474;9.416;2023-07-31T04:29:41;95606.66;;;14.47;78.29
11268;BME280;49397;47.474;9.416;2023-07-31T04:32:08;95610.41;;;14.54;78.69
11268;BME280;49397;47.474;9.416;2023-07-31T04:34:33;95615.47;;;14.56;79.21
11268;BME280;49397;47.474;9.416;2023-07-31T04:36:59;95611.59;;;14.65;78.35
11268;BME280;49397;47.474;9.416;2023-07-31T04:39:24;95600.97;;;14.69;78.19
11268;BME280;49397;47.474;9.416;2023-07-31T04:41:49;95603.78;;;14.72;78.11
11268;BME280;49397;47.474;9.416;2023-07-31T04:44:15;95613.31;;;14.70;77.81
11268;BME280;49397;47.474;9.416;2023-07-31T04:46:40;95597.03;;;14.87;78.40
11268;BME280;49397;47.474;9.416;2023-07-31T04:49:05;95607.06;;;14.99;78.48
11268;BME280;49397;47.474;9.416;2023-07-31T04:51:31;95608.00;;;15.03;78.02
11268;BME280;49397;47.474;9.416;2023-07-31T04:53:56;95617.63;;;15.04;77.62
11268;BME280;49397;47.474;9.416;2023-07-31T04:56:22;95611.88;;;15.26;76.63
11268;BME280;49397;47.474;9.416;2023-07-31T04:58:47;95610.13;;;15.42;76.38
11268;BME280;49397;47.474;9.416;2023-07-31T05:01:12;95608.19;;;15.51;76.79
11268;BME280;49397;47.474;9.416;2023-07-31T05:03:38;95609.63;;;15.49;75.00
11268;BME280;49397;47.474;9.416;2023-07-31T05:06:03;95602.66;;;15.48;75.52
11268;BME280;49397;47.474;9.416;2023-07-31T05:08:29;95606.06;;;15.57;74.69
11268;BME280;49397;47.474;9.416;2023-07-31T05:10:54;95598.88;;;15.61;74.88
11268;BME280;49397;47.474;9.416;2023-07-31T05:13:19;95604.06;;;15.66;74.24
11268;BME280;49397;47.474;9.416;2023-07-31T05:15:45;95604.38;;;15.64;74.80
11268;BME280;49397;47.474;9.416;2023-07-31T05:18:10;95605.66;;;15.79;74.34
11268;BME280;49397;47.474;9.416;2023-07-31T05:20:35;95601.94;;;15.83;74.70
11268;BME280;49397;47.474;9.416;2023-07-31T05:23:01;95611.50;;;15.93;72.66
11268;BME280;49397;47.474;9.416;2023-07-31T05:25:26;95613.31;;;16.13;72.20
11268;BME280;49397;47.474;9.416;2023-07-31T05:27:52;95616.69;;;16.22;71.03
11268;BME280;49397;47.474;9.416;2023-07-31T05:30:17;95622.44;;;16.33;71.57
11268;BME280;49397;47.474;9.416;2023-07-31T05:32:42;95617.03;;;16.33;70.53
11268;BME280;49397;47.474;9.416;2023-07-31T05:35:08;95614.88;;;16.38;70.54
11268;BME280;49397;47.474;9.416;2023-07-31T05:37:34;95607.91;;;16.50;70.02
11268;BME280;49397;47.474;9.416;2023-07-31T05:39:59;95606.59;;;16.56;69.42
11268;BME280;49397;47.474;9.416;2023-07-31T05:42:24;95605.56;;;16.60;69.79
11268;BME280;49397;47.474;9.416;2023-07-31T05:44:50;95615.69;;;16.63;67.51
11268;BME280;49397;47.474;9.416;2023-07-31T05:47:15;95601.50;;;16.66;66.96
11268;BME280;49397;47.474;9.416;2023-07-31T05:49:41;95594.84;;;16.76;68.10
11268;BME280;49397;47.474;9.416;2023-07-31T05:52:06;95599.44;;;16.75;67.59
11268;BME280;49397;47.474;9.416;2023-07-31T05:54:32;95606.22;;;16.81;67.53
11268;BME280;49397;47.474;9.416;2023-07-31T05:56:58;95595.50;;;16.85;66.19
11268;BME280;49397;47.474;9.416;2023-07-31T05:59:23;95599.34;;;16.84;67.23
11268;BME280;49397;47.474;9.416;2023-07-31T06:01:48;95599.19;;;16.92;66.95
11268;BME280;49397;47.474;9.416;2023-07-31T06:04:14;95597.19;;;17.17;67.84
11268;BME280;49397;47.474;9.416;2023-07-31T06:06:39;95593.38;;;17.62;65.98
11268;BME280;49397;47.474;9.416;2023-07-31T06:09:05;95599.19;;;18.07;64.61
11268;BME280;49397;47.474;9.416;2023-07-31T06:11:30;95603.44;;;18.24;64.92
11268;BME280;49397;47.474;9.416;2023-07-31T06:13:56;95595.31;;;18.55;63.14
11268;BME280;49397;47.474;9.416;2023-07-31T06:16:21;95608.75;;;18.86;66.32
11268;BME280;49397;47.474;9.416;2023-07-31T06:18:47;95597.84;;;19.60;63.97
11268;BME280;49397;47.474;9.416;2023-07-31T06:21:12;95602.44;;;19.36;61.33
11268;BME280;49397;47.474;9.416;2023-07-31T06:23:38;95593.75;;;19.69;63.16
11268;BME280;49397;47.474;9.416;2023-07-31T06:26:03;95592.03;;;19.80;59.37
11268;BME280;49397;47.474;9.416;2023-07-31T06:28:29;95598.88;;;19.51;61.39
11268;BME280;49397;47.474;9.416;2023-07-31T06:30:55;95601.81;;;19.43;61.69
11268;BME280;49397;47.474;9.416;2023-07-31T06:33:21;95604.78;;;18.99;59.35
11268;BME280;49397;47.474;9.416;2023-07-31T06:35:46;95600.50;;;18.98;62.59
11268;BME280;49397;47.474;9.416;2023-07-31T06:38:11;95592.34;;;19.37;59.87
11268;BME280;49397;47.474;9.416;2023-07-31T06:40:37;95591.97;;;18.62;58.24
11268;BME280;49397;47.474;9.416;2023-07-31T06:43:02;95588.16;;;19.39;60.67
11268;BME280;49397;47.474;9.416;2023-07-31T06:45:36;95598.94;;;19.36;61.41
11268;BME280;49397;47.474;9.416;2023-07-31T06:48:03;95596.31;;;19.59;60.87
11268;BME280;49397;47.474;9.416;2023-07-31T06:50:32;95603.25;;;20.01;59.37
11268;BME280;49397;47.474;9.416;2023-07-31T06:52:57;95603.00;;;19.26;59.42
11268;BME280;49397;47.474;9.416;2023-07-31T06:55:23;95596.41;;;19.43;59.66
11268;BME280;49397;47.474;9.416;2023-07-31T06:57:50;95592.50;;;19.63;57.98
11268;BME280;49397;47.474;9.416;2023-07-31T07:00:16;95583.00;;;19.95;59.32
11268;BME280;49397;47.474;9.416;2023-07-31T07:02:42;95582.75;;;19.39;59.08
11268;BME280;49397;47.474;9.416;2023-07-31T07:05:08;95583.00;;;19.95;58.88
11268;BME280;49397;47.474;9.416;2023-07-31T07:07:34;95584.44;;;19.89;58.92
11268;BME280;49397;47.474;9.416;2023-07-31T07:10:00;95572.84;;;20.15;57.92
11268;BME280;49397;47.474;9.416;2023-07-31T07:12:27;95571.22;;;20.11;55.97
11268;BME280;49397;47.474;9.416;2023-07-31T07:14:53;95571.84;;;20.00;57.85
11268;BME280;49397;47.474;9.416;2023-07-31T07:17:19;95574.91;;;20.22;55.36
11268;BME280;49397;47.474;9.416;2023-07-31T07:19:44;95583.53;;;20.04;57.11
11268;BME280;49397;47.474;9.416;2023-07-31T07:22:11;95590.28;;;19.91;55.21
11268;BME280;49397;47.474;9.416;2023-07-31T07:24:37;95591.72;;;19.85;57.29
11268;BME280;49397;47.474;9.416;2023-07-31T07:27:03;95580.53;;;20.10;57.87
11268;BME280;49397;47.474;9.416;2023-07-31T07:29:28;95572.97;;;20.22;56.62
11268;BME280;49397;47.474;9.416;2023-07-31T07:31:53;95568.16;;;20.35;55.63
11268;BME280;49397;47.474;9.416;2023-07-31T07:34:19;95562.84;;;20.19;54.87
11268;BME280;49397;47.474;9.416;2023-07-31T07:36:44;95559.25;;;19.89;54.94
11268;BME280;49397;47.474;9.416;2023-07-31T07:39:10;95552.94;;;19.81;57.26
11268;BME280;49397;47.474;9.416;2023-07-31T07:41:36;95557.59;;;19.20;55.16
11268;BME280;49397;47.474;9.416;2023-07-31T07:44:01;95556.47;;;19.63;57.28
11268;BME280;49397;47.474;9.416;2023-07-31T07:46:26;95554.00;;;19.54;56.21
11268;BME280;49397;47.474;9.416;2023-07-31T07:48:52;95545.63;;;19.21;57.81
11268;BME280;49397;47.474;9.416;2023-07-31T07:51:17;95543.25;;;19.00;57.67
11268;BME280;49397;47.474;9.416;2023-07-31T07:53:42;95536.69;;;19.20;58.42
11268;BME280;49397;47.474;9.416;2023-07-31T07:56:08;95532.56;;;19.68;57.98
11268;BME280;49397;47.474;9.416;2023-07-31T07:58:33;95541.22;;;19.77;57.90
11268;BME280;49397;47.474;9.416;2023-07-31T08:00:58;95536.81;;;19.92;58.19
11268;BME280;49397;47.474;9.416;2023-07-31T08:03:24;95534.75;;;19.85;56.36
11268;BME280;49397;47.474;9.416;2023-07-31T08:05:49;95534.47;;;19.90;58.60
11268;BME280;49397;47.474;9.416;2023-07-31T08:08:15;95541.28;;;20.03;58.87
11268;BME280;49397;47.474;9.416;2023-07-31T08:10:42;95546.31;;;20.05;56.66
11268;BME280;49397;47.474;9.416;2023-07-31T08:13:07;95550.28;;;20.34;57.24
11268;BME280;49397;47.474;9.416;2023-07-31T08:15:33;95554.94;;;20.11;57.15
11268;BME280;49397;47.474;9.416;2023-07-31T08:17:58;95558.44;;;20.34;57.10
11268;BME280;49397;47.474;9.416;2023-07-31T08:20:23;95560.94;;;20.23;56.16
11268;BME280;49397;47.474;9.416;2023-07-31T08:22:49;95561.16;;;20.11;57.21
11268;BME280;49397;47.474;9.416;2023-07-31T08:25:14;95562.41;;;20.40;56.66
11268;BME280;49397;47.474;9.416;2023-07-31T08:27:43;95566.56;;;20.34;55.37
11268;BME280;49397;47.474;9.416;2023-07-31T08:30:09;95560.41;;;20.37;55.21
11268;BME280;49397;47.474;9.416;2023-07-31T08:32:34;95552.50;;;20.51;56.94
11268;BME280;49397;47.474;9.416;2023-07-31T08:35:00;95554.69;;;20.72;56.62
11268;BME280;49397;47.474;9.416;2023-07-31T08:37:25;95556.31;;;20.76;55.29
11268;BME280;49397;47.474;9.416;2023-07-31T08:39:50;95536.94;;;20.78;55.37
11268;BME280;49397;47.474;9.416;2023-07-31T08:42:16;95541.13;;;20.72;56.03
11268;BME280;49397;47.474;9.416;2023-07-31T08:44:43;95537.84;;;20.59;55.01
11268;BME280;49397;47.474;9.416;2023-07-31T08:47:09;95550.63;;;20.29;56.76
11268;BME280;49397;47.474;9.416;2023-07-31T08:49:36;95550.25;;;20.07;56.75
11268;BME280;49397;47.474;9.416;2023-07-31T08:52:02;95547.16;;;20.58;57.46
11268;BME280;49397;47.474;9.416;2023-07-31T08:54:28;95541.63;;;20.81;55.83
11268;BME280;49397;47.474;9.416;2023-07-31T08:56:57;95539.50;;;20.97;55.73
11268;BME280;49397;47.474;9.416;2023-07-31T08:59:23;95534.94;;;21.04;56.39
11268;BME280;49397;47.474;9.416;2023-07-31T09:01:52;95537.84;;;20.59;54.47
11268;BME280;49397;47.474;9.416;2023-07-31T09:04:19;95531.72;;;20.95;55.40
11268;BME280;49397;47.474;9.416;2023-07-31T09:06:46;95512.94;;;21.13;54.30
11268;BME280;49397;47.474;9.416;2023-07-31T09:09:13;95511.47;;;21.23;54.83
11268;BME280;49397;47.474;9.416;2023-07-31T09:11:39;95505.06;;;21.38;54.08
11268;BME280;49397;47.474;9.416;2023-07-31T09:14:05;95504.56;;;21.69;54.31
11268;BME280;49397;47.474;9.416;2023-07-31T09:16:34;95493.34;;;21.34;54.49
11268;BME280;49397;47.474;9.416;2023-07-31T09:19:00;95498.44;;;21.39;54.18
11268;BME280;49397;47.474;9.416;2023-07-31T09:21:27;95489.25;;;21.54;54.92
11268;BME280;49397;47.474;9.416;2023-07-31T09:23:54;95485.75;;;21.50;54.61
11268;BME280;49397;47.474;9.416;2023-07-31T09:26:36;95494.09;;;21.71;54.43
11268;BME280;49397;47.474;9.416;2023-07-31T09:29:05;95487.41;;;21.61;53.52
11268;BME280;49397;47.474;9.416;2023-07-31T09:31:40;95492.38;;;21.52;52.86
11268;BME280;49397;47.474;9.416;2023-07-31T09:34:06;95485.88;;;21.68;53.03
11268;BME280;49397;47.474;9.416;2023-07-31T09:36:32;95490.31;;;21.86;53.62
11268;BME280;49397;47.474;9.416;2023-07-31T09:39:09;95480.50;;;22.22;54.00
11268;BME280;49397;47.474;9.416;2023-07-31T09:41:38;95478.59;;;22.30;56.22
11268;BME280;49397;47.474;9.416;2023-07-31T09:44:04;95482.56;;;22.39;53.14
11268;BME280;49397;47.474;9.416;2023-07-31T09:46:30;95472.41;;;22.33;55.08
11268;BME280;49397;47.474;9.416;2023-07-31T09:49:11;95475.38;;;22.13;53.86
11268;BME280;49397;47.474;9.416;2023-07-31T09:51:38;95468.19;;;22.46;54.80
11268;BME280;49397;47.474;9.416;2023-07-31T09:54:15;95464.47;;;22.72;54.41
11268;BME280;49397;47.474;9.416;2023-07-31T09:56:45;95467.72;;;23.16;53.23
11268;BME280;49397;47.474;9.416;2023-07-31T09:59:12;95476.31;;;23.36;52.67
11268;BME280;49397;47.474;9.416;2023-07-31T10:01:40;95481.81;;;23.43;52.29
11268;BME280;49397;47.474;9.416;2023-07-31T10:04:07;95480.16;;;23.10;53.48
11268;BME280;49397;47.474;9.416;2023-07-31T10:06:34;95482.63;;;22.57;52.32
11268;BME280;49397;47.474;9.416;2023-07-31T10:09:00;95472.31;;;22.98;51.92
11268;BME280;49397;47.474;9.416;2023-07-31T10:11:27;95467.34;;;23.25;53.50
11268;BME280;49397;47.474;9.416;2023-07-31T10:13:54;95465.34;;;23.11;51.37
11268;BME280;49397;47.474;9.416;2023-07-31T10:16:21;95466.59;;;23.38;52.15
11268;BME280;49397;47.474;9.416;2023-07-31T10:18:47;95454.16;;;22.44;54.65
11268;BME280;49397;47.474;9.416;2023-07-31T10:21:13;95443.13;;;22.98;55.18
11268;BME280;49397;47.474;9.416;2023-07-31T10:23:40;95454.47;;;23.22;53.50
11268;BME280;49397;47.474;9.416;2023-07-31T10:26:07;95452.59;;;23.54;54.81
11268;BME280;49397;47.474;9.416;2023-07-31T10:28:34;95449.41;;;23.24;54.07
11268;BME280;49397;47.474;9.416;2023-07-31T10:31:02;95455.53;;;22.82;55.76
11268;BME280;49397;47.474;9.416;2023-07-31T10:33:28;95455.94;;;22.94;56.22
11268;BME280;49397;47.474;9.416;2023-07-31T10:36:12;95458.53;;;22.62;54.67
11268;BME280;49397;47.474;9.416;2023-07-31T10:38:37;95453.66;;;23.14;54.91
11268;BME280;49397;47.474;9.416;2023-07-31T10:41:09;95440.44;;;23.12;56.37
11268;BME280;49397;47.474;9.416;2023-07-31T10:43:39;95436.53;;;23.17;54.62
11268;BME280;49397;47.474;9.416;2023-07-31T10:46:14;95417.91;;;23.61;54.61
11268;BME280;49397;47.474;9.416;2023-07-31T10:48:41;95414.00;;;23.73;54.23
11268;BME280;49397;47.474;9.416;2023-07-31T10:51:08;95411.66;;;23.64;52.12
11268;BME280;49397;47.474;9.416;2023-07-31T10:53:35;95409.34;;;23.63;51.78
11268;BME280;49397;47.474;9.416;2023-07-31T10:56:09;95407.00;;;23.90;51.47
11268;BME280;49397;47.474;9.416;2023-07-31T10:58:38;95410.88;;;23.71;53.01
11268;BME280;49397;47.474;9.416;2023-07-31T11:01:05;95396.03;;;24.00;50.04
11268;BME280;49397;47.474;9.416;2023-07-31T11:03:45;95392.50;;;24.00;50.25
11268;BME280;49397;47.474;9.416;2023-07-31T11:06:13;95392.88;;;24.19;50.85
11268;BME280;49397;47.474;9.416;2023-07-31T11:08:49;95378.72;;;24.56;50.39
11268;BME280;49397;47.474;9.416;2023-07-31T11:11:19;95377.09;;;24.69;48.88
11268;BME280;49397;47.474;9.416;2023-07-31T11:13:52;95374.72;;;24.75;49.39
11268;BME280;49397;47.474;9.416;2023-07-31T11:16:20;95362.09;;;25.02;49.43
11268;BME280;49397;47.474;9.416;2023-07-31T11:18:47;95362.72;;;24.55;47.76
11268;BME280;49397;47.474;9.416;2023-07-31T11:21:21;95363.06;;;24.60;49.39
11268;BME280;49397;47.474;9.416;2023-07-31T11:23:52;95351.75;;;24.62;50.86
11268;BME280;49397;47.474;9.416;2023-07-31T11:26:18;95362.56;;;24.87;50.87
11268;BME280;49397;47.474;9.416;2023-07-31T11:28:48;95351.56;;;24.97;50.01
11268;BME280;49397;47.474;9.416;2023-07-31T11:31:13;95347.75;;;24.81;49.69
11268;BME280;49397;47.474;9.416;2023-07-31T11:33:39;95350.59;;;24.63;48.60
11268;BME280;49397;47.474;9.416;2023-07-31T11:36:04;95344.41;;;24.45;50.49
11268;BME280;49397;47.474;9.416;2023-07-31T11:38:32;95340.19;;;25.02;48.50
11268;BME280;49397;47.474;9.416;2023-07-31T11:41:03;95333.81;;;24.57;50.68
11268;BME280;49397;47.474;9.416;2023-07-31T11:43:29;95333.06;;;25.15;49.29
11268;BME280;49397;47.474;9.416;2023-07-31T11:45:57;95328.94;;;25.45;49.20
11268;BME280;49397;47.474;9.416;2023-07-31T11:48:27;95325.19;;;25.72;49.67
11268;BME280;49397;47.474;9.416;2023-07-31T11:50:54;95315.41;;;26.09;46.93
11268;BME280;49397;47.474;9.416;2023-07-31T11:53:26;95314.50;;;25.85;47.84
11268;BME280;49397;47.474;9.416;2023-07-31T11:55:55;95306.72;;;26.14;44.70
11268;BME280;49397;47.474;9.416;2023-07-31T11:58:23;95300.41;;;25.49;47.32
11268;BME280;49397;47.474;9.416;2023-07-31T12:00:48;95316.00;;;25.49;48.25
11268;BME280;49397;47.474;9.416;2023-07-31T12:03:14;95306.34;;;25.34;48.03
11268;BME280;49397;47.474;9.416;2023-07-31T12:05:40;95308.00;;;25.24;50.58
11268;BME280;49397;47.474;9.416;2023-07-31T12:08:11;95311.09;;;24.67;47.19
11268;BME280;49397;47.474;9.416;2023-07-31T12:10:37;95306.97;;;25.07;50.77
11268;BME280;49397;47.474;9.416;2023-07-31T12:13:09;95305.97;;;24.84;51.98
11268;BME280;49397;47.474;9.416;2023-07-31T12:15:42;95309.28;;;24.43;52.22
11268;BME280;49397;47.474;9.416;2023-07-31T12:18:12;95310.56;;;24.25;52.04
11268;BME280;49397;47.474;9.416;2023-07-31T12:20:55;95310.78;;;24.58;50.92
11268;BME280;49397;47.474;9.416;2023-07-31T12:23:23;95311.25;;;25.08;51.17
11268;BME280;49397;47.474;9.416;2023-07-31T12:26:12;95296.84;;;25.52;48.46
11268;BME280;49397;47.474;9.416;2023-07-31T12:28:41;95287.94;;;25.78;47.52
11268;BME280;49397;47.474;9.416;2023-07-31T12:31:08;95296.97;;;26.16;45.78
11268;BME280;49397;47.474;9.416;2023-07-31T12:33:35;95296.91;;;26.50;40.80
11268;BME280;49397;47.474;9.416;2023-07-31T12:36:15;95291.50;;;26.73;41.91
11268;BME280;49397;47.474;9.416;2023-07-31T12:38:41;95291.94;;;26.99;43.50
11268;BME280;49397;47.474;9.416;2023-07-31T12:41:07;95295.97;;;27.41;45.48
11268;BME280;49397;47.474;9.416;2023-07-31T12:43:39;95278.63;;;26.97;42.24
11268;BME280;49397;47.474;9.416;2023-07-31T12:46:04;95278.88;;;26.53;43.20
11268;BME280;49397;47.474;9.416;2023-07-31T12:48:31;95280.13;;;26.75;42.34
11268;BME280;49397;47.474;9.416;2023-07-31T12:50:57;95277.84;;;26.70;40.93
11268;BME280;49397;47.474;9.416;2023-07-31T12:53:22;95281.56;;;26.56;41.29
11268;BME280;49397;47.474;9.416;2023-07-31T12:55:47;95271.47;;;27.03;40.11
11268;BME280;49397;47.474;9.416;2023-07-31T12:58:13;95271.84;;;27.05;40.89
11268;BME280;49397;47.474;9.416;2023-07-31T13:00:38;95267.78;;;26.33;41.65